createdAt,value
2022-08-05T00:00:54.068Z,27.69
2022-08-05T00:03:20.531Z,27.76
2022-08-05T00:06:05.365Z,27.72
2022-08-05T00:08:36.290Z,27.59
2022-08-05T00:11:20.324Z,27.66
2022-08-05T00:13:53.001Z,27.62
2022-08-05T00:16:35.423Z,27.49
2022-08-05T00:19:03.917Z,27.38
2022-08-05T00:21:30.749Z,27.40
2022-08-05T00:24:10.088Z,27.52
2022-08-05T00:26:37.940Z,27.53
2022-08-05T00:29:04.383Z,27.52
2022-08-05T00:31:53.986Z,27.46
2022-08-05T00:34:56.409Z,27.41
2022-08-05T00:37:11.542Z,27.35
2022-08-05T00:39:57.530Z,27.24
2022-08-05T00:42:34.207Z,27.05
2022-08-05T00:45:01.426Z,26.99
2022-08-05T00:47:31.608Z,27.06
2022-08-05T00:50:14.849Z,27.06
2022-08-05T00:52:41.828Z,26.95
2022-08-05T00:55:12.250Z,27.10
2022-08-05T00:57:58.012Z,27.11
2022-08-05T01:00:26.052Z,27.05
2022-08-05T01:02:52.724Z,27.09
2022-08-05T01:05:19.503Z,27.17
2022-08-05T01:08:39.925Z,27.17
2022-08-05T01:10:51.526Z,27.04
2022-08-05T01:13:57.642Z,26.96
2022-08-05T01:16:29.351Z,26.63
2022-08-05T01:19:02.816Z,26.77
2022-08-05T01:21:41.115Z,26.81
2022-08-05T01:24:26.172Z,26.57
2022-08-05T01:26:56.621Z,26.58
2022-08-05T01:29:37.175Z,26.41
2022-08-05T01:32:12.300Z,26.64
2022-08-05T01:34:44.225Z,26.70
2022-08-05T01:37:24.418Z,26.72
2022-08-05T01:39:54.820Z,26.69
2022-08-05T01:42:27.939Z,26.72
2022-08-05T01:44:57.260Z,26.67
2022-08-05T01:47:38.724Z,26.59
2022-08-05T01:50:15.402Z,26.48
2022-08-05T01:52:44.170Z,26.45
2022-08-05T01:55:13.380Z,26.51
2022-08-05T01:58:10.553Z,26.50
2022-08-05T02:00:31.453Z,26.40
2022-08-05T02:03:03.583Z,26.33
2022-08-05T02:05:34.388Z,26.26
2022-08-05T02:08:03.866Z,26.07
2022-08-05T02:10:41.717Z,26.06
2022-08-05T02:13:16.391Z,26.01
2022-08-05T02:15:57.621Z,26.12
2022-08-05T02:18:34.865Z,26.18
2022-08-05T02:21:06.666Z,26.23
2022-08-05T02:23:44.227Z,26.28
2022-08-05T02:26:17.232Z,26.28
2022-08-05T02:28:46.332Z,26.28
2022-08-05T02:31:23.045Z,26.21
2022-08-05T02:33:57.352Z,26.05
2022-08-05T02:36:27.485Z,25.98
2022-08-05T02:38:57.526Z,26.04
2022-08-05T02:41:28.286Z,25.95
2022-08-05T02:44:11.306Z,25.75
2022-08-05T02:46:53.842Z,25.78
2022-08-05T02:49:35.783Z,25.75
2022-08-05T02:52:07.639Z,25.70
2022-08-05T02:54:37.022Z,25.73
2022-08-05T02:57:10.399Z,25.66
2022-08-05T02:59:54.420Z,25.71
2022-08-05T03:02:27.600Z,25.66
2022-08-05T03:04:57.301Z,25.65
2022-08-05T03:07:59.179Z,25.50
2022-08-05T03:10:15.680Z,25.63
2022-08-05T03:12:49.489Z,25.60
2022-08-05T03:15:18.513Z,25.53
2022-08-05T03:17:44.990Z,25.51
2022-08-05T03:20:11.827Z,25.51
2022-08-05T03:22:46.944Z,25.51
2022-08-05T03:25:32.612Z,25.42
2022-08-05T03:28:08.417Z,25.31
2022-08-05T03:30:36.743Z,25.14
2022-08-05T03:33:06.252Z,25.18
2022-08-05T03:35:40.746Z,25.01
2022-08-05T03:38:11.032Z,25.17
2022-08-05T03:40:45.310Z,25.08
2022-08-05T03:44:09.024Z,24.99
2022-08-05T03:46:03.306Z,25.03
2022-08-05T03:48:30.994Z,24.99
2022-08-05T03:52:37.864Z,24.86
2022-08-05T03:55:50.339Z,24.99
2022-08-05T03:56:55.258Z,25.12
2022-08-05T03:59:47.000Z,25.13
2022-08-05T04:02:38.784Z,25.04
2022-08-05T04:05:12.999Z,25.05
2022-08-05T04:07:57.585Z,25.14
2022-08-05T04:10:27.686Z,24.97
2022-08-05T04:12:58.939Z,25.03
2022-08-05T04:15:27.899Z,25.11
2022-08-05T04:18:07.198Z,25.12
2022-08-05T04:20:35.990Z,25.25
2022-08-05T04:23:02.439Z,25.24
2022-08-05T04:25:56.949Z,25.19
2022-08-05T04:28:17.230Z,25.20
2022-08-05T04:30:44.481Z,25.24
2022-08-05T04:33:12.334Z,25.33
2022-08-05T04:36:10.651Z,25.33
2022-08-05T04:38:39.151Z,25.44
2022-08-05T04:41:05.776Z,25.28
2022-08-05T04:43:34.201Z,25.23
2022-08-05T04:46:01.079Z,25.14
2022-08-05T04:48:28.359Z,25.13
2022-08-05T04:51:02.828Z,24.99
2022-08-05T04:53:33.413Z,24.91
2022-08-05T04:56:32.306Z,24.96
2022-08-05T04:58:48.135Z,25.04
2022-08-05T05:01:14.650Z,24.98
2022-08-05T05:04:00.338Z,24.87
2022-08-05T05:06:39.351Z,24.83
2022-08-05T05:09:17.216Z,24.85
2022-08-05T05:11:55.710Z,24.91
2022-08-05T05:14:27.744Z,25.11
2022-08-05T05:16:59.916Z,25.13
2022-08-05T05:19:36.575Z,25.20
2022-08-05T05:22:24.282Z,25.38
2022-08-05T05:24:58.888Z,25.45
2022-08-05T05:27:44.567Z,25.44
2022-08-05T05:30:28.847Z,25.44
2022-08-05T05:32:56.994Z,25.47
2022-08-05T05:35:27.841Z,25.71
2022-08-05T05:37:59.794Z,25.61
2022-08-05T05:40:29.425Z,25.70
2022-08-05T05:42:57.194Z,25.82
2022-08-05T05:45:24.544Z,25.96
2022-08-05T05:48:05.592Z,26.38
2022-08-05T05:50:44.147Z,26.86
2022-08-05T05:53:22.259Z,27.11
2022-08-05T05:55:51.813Z,27.18
2022-08-05T05:58:30.149Z,27.26
2022-08-05T06:01:02.556Z,27.30
2022-08-05T06:03:53.980Z,27.29
2022-08-05T06:06:27.918Z,27.23
2022-08-05T06:08:57.450Z,27.60
2022-08-05T06:11:24.167Z,27.52
2022-08-05T06:13:53.958Z,27.65
2022-08-05T06:16:28.358Z,27.72
2022-08-05T06:19:00.787Z,27.74
2022-08-05T06:21:35.693Z,27.71
2022-08-05T06:24:03.141Z,27.65
2022-08-05T06:26:31.840Z,27.62
2022-08-05T06:29:06.054Z,27.66
2022-08-05T06:31:46.797Z,27.60
2022-08-05T06:34:13.684Z,27.64
2022-08-05T06:36:57.039Z,27.47
2022-08-05T06:39:27.225Z,27.54
2022-08-05T06:41:59.000Z,27.52
2022-08-05T06:44:26.086Z,27.48
2022-08-05T06:46:52.656Z,27.47
2022-08-05T06:49:21.515Z,27.37
2022-08-05T06:52:07.765Z,27.29
2022-08-05T06:54:54.166Z,27.66
2022-08-05T06:58:03.281Z,28.55
2022-08-05T07:00:07.909Z,29.08
2022-08-05T07:02:47.009Z,29.74
2022-08-05T07:05:23.450Z,30.27
2022-08-05T07:08:04.380Z,30.62
2022-08-05T07:10:32.656Z,30.35
2022-08-05T07:13:56.950Z,30.81
2022-08-05T07:18:01.490Z,31.22
2022-08-05T07:19:09.924Z,30.75
2022-08-05T07:22:00.690Z,30.69
2022-08-05T07:24:23.228Z,31.04
2022-08-05T07:26:55.094Z,32.05
2022-08-05T07:29:25.355Z,32.23
2022-08-05T07:32:08.209Z,31.95
2022-08-05T07:34:35.785Z,31.86
2022-08-05T07:37:09.541Z,31.37
2022-08-05T07:40:25.836Z,31.66
2022-08-05T07:42:31.725Z,32.57
2022-08-05T07:45:00.614Z,32.70
2022-08-05T07:47:27.090Z,32.57
2022-08-05T07:50:07.393Z,32.87
2022-08-05T07:52:42.048Z,32.64
2022-08-05T07:55:44.586Z,32.23
2022-08-05T07:58:03.049Z,31.69
2022-08-05T08:00:30.652Z,32.33
2022-08-05T08:03:14.835Z,31.80
2022-08-05T08:05:49.376Z,31.67
2022-08-05T08:08:16.874Z,32.74
2022-08-05T08:10:49.015Z,33.32
2022-08-05T08:13:21.869Z,33.21
2022-08-05T08:16:50.232Z,32.31
2022-08-05T08:18:41.819Z,32.39
2022-08-05T08:21:17.704Z,32.68
2022-08-05T08:24:03.872Z,34.57
2022-08-05T08:26:30.783Z,36.49
2022-08-05T08:29:21.540Z,35.61
2022-08-05T08:31:45.466Z,36.16
2022-08-05T08:34:11.971Z,36.33
2022-08-05T08:36:50.192Z,37.14
2022-08-05T08:39:23.417Z,36.70
2022-08-05T08:42:00.009Z,36.38
2022-08-05T08:45:17.713Z,35.68
2022-08-05T08:48:06.028Z,35.25
2022-08-05T08:50:33.017Z,35.45
2022-08-05T08:53:12.011Z,35.91
2022-08-05T08:56:02.586Z,36.48
2022-08-05T08:58:43.548Z,38.09
2022-08-05T09:01:16.841Z,36.65
2022-08-05T09:03:48.342Z,35.35
2022-08-05T09:06:24.307Z,37.14
2022-08-05T09:08:55.425Z,37.30
2022-08-05T09:11:52.649Z,38.36
2022-08-05T09:14:54.696Z,39.41
2022-08-05T09:16:55.159Z,40.15
2022-08-05T09:19:28.046Z,41.12
2022-08-05T09:22:23.490Z,41.74
2022-08-05T09:25:13.889Z,41.42
2022-08-05T09:28:04.213Z,39.76
2022-08-05T09:30:34.759Z,40.89
2022-08-05T09:33:02.297Z,39.77
2022-08-05T09:35:29.462Z,40.14
2022-08-05T09:38:12.009Z,38.07
2022-08-05T09:40:51.783Z,37.08
2022-08-05T09:43:41.587Z,38.11
2022-08-05T09:46:27.994Z,39.11
2022-08-05T09:49:08.126Z,40.09
2022-08-05T09:51:43.464Z,41.85
2022-08-05T09:54:11.401Z,40.96
2022-08-05T09:56:38.918Z,42.26
2022-08-05T09:59:07.216Z,40.48
2022-08-05T10:01:36.854Z,40.04
2022-08-05T10:04:13.634Z,41.21
2022-08-05T10:06:58.846Z,40.37
2022-08-05T10:09:28.123Z,39.69
2022-08-05T10:12:30.466Z,39.95
2022-08-05T10:14:54.366Z,39.58
2022-08-05T10:17:37.239Z,39.09
2022-08-05T10:20:10.790Z,39.80
2022-08-05T10:22:48.659Z,38.73
2022-08-05T10:25:19.068Z,38.44
2022-08-05T10:28:13.339Z,38.05
2022-08-05T10:31:20.669Z,37.30
2022-08-05T10:33:25.624Z,38.96
2022-08-05T10:35:59.153Z,41.00
2022-08-05T10:38:28.692Z,42.40
2022-08-05T10:41:13.905Z,43.43
2022-08-05T10:44:04.794Z,42.51
2022-08-05T10:46:43.428Z,40.72
2022-08-05T10:49:16.574Z,41.76
2022-08-05T10:51:57.782Z,42.88
2022-08-05T10:54:56.168Z,43.49
2022-08-05T10:57:31.763Z,42.96
2022-08-05T11:00:18.702Z,41.75
2022-08-05T11:03:25.285Z,43.33
2022-08-05T11:06:15.931Z,42.08
2022-08-05T11:09:32.249Z,41.18
2022-08-05T11:12:26.595Z,39.64
2022-08-05T11:15:20.479Z,40.63
2022-08-05T11:18:07.685Z,41.91
2022-08-05T11:20:47.493Z,40.57
2022-08-05T11:23:33.289Z,38.75
2022-08-05T11:26:17.253Z,38.46
2022-08-05T11:29:06.775Z,38.17
2022-08-05T11:31:57.836Z,36.99
2022-08-05T11:34:51.951Z,36.98
2022-08-05T11:38:36.741Z,37.81
2022-08-05T11:41:03.456Z,39.51
2022-08-05T11:44:07.146Z,40.51
2022-08-05T11:47:10.330Z,40.53
2022-08-05T11:49:33.993Z,39.87
2022-08-05T11:52:01.258Z,40.63
2022-08-05T11:54:38.081Z,41.32
2022-08-05T11:57:08.447Z,42.26
2022-08-05T11:59:50.958Z,41.06
2022-08-05T12:02:29.947Z,42.74
2022-08-05T12:05:00.167Z,43.78
2022-08-05T12:08:03.732Z,43.28
2022-08-05T12:10:21.393Z,42.33
2022-08-05T12:12:59.397Z,43.11
2022-08-05T12:15:35.863Z,43.69
2022-08-05T12:18:10.675Z,44.76
2022-08-05T12:20:38.768Z,45.01
2022-08-05T12:23:11.985Z,45.20
2022-08-05T12:25:56.650Z,43.39
2022-08-05T12:28:37.800Z,42.43
2022-08-05T12:31:04.832Z,44.54
2022-08-05T12:33:36.527Z,43.82
2022-08-05T12:36:08.165Z,42.12
2022-08-05T12:38:38.091Z,43.12
2022-08-05T12:41:13.812Z,42.84
2022-08-05T12:43:57.465Z,42.02
2022-08-05T12:46:29.422Z,44.00
2022-08-05T12:49:19.028Z,41.89
2022-08-05T12:52:13.649Z,42.85
2022-08-05T12:54:39.896Z,42.66
2022-08-05T12:57:09.453Z,44.53
2022-08-05T13:01:57.318Z,45.66
2022-08-05T13:02:36.068Z,43.62
2022-08-05T13:05:06.370Z,43.53
2022-08-05T13:07:59.382Z,41.78
2022-08-05T13:10:19.710Z,42.83
2022-08-05T13:12:51.056Z,42.29
2022-08-05T13:15:42.220Z,42.81
2022-08-05T13:18:19.924Z,42.95
2022-08-05T13:20:47.376Z,45.01
2022-08-05T13:23:16.433Z,45.75
2022-08-05T13:25:52.572Z,43.83
2022-08-05T13:28:26.355Z,42.96
2022-08-05T13:30:53.398Z,43.72
2022-08-05T13:34:21.194Z,43.69
2022-08-05T13:36:07.144Z,43.49
2022-08-05T13:38:42.036Z,42.12
2022-08-05T13:41:09.415Z,43.23
2022-08-05T13:43:44.163Z,43.09
2022-08-05T13:46:43.652Z,42.91
2022-08-05T13:49:10.245Z,43.24
2022-08-05T13:51:41.550Z,43.24
2022-08-05T13:54:15.302Z,43.15
2022-08-05T13:56:45.128Z,42.94
2022-08-05T13:59:24.603Z,43.54
2022-08-05T14:01:56.481Z,41.46
2022-08-05T14:04:43.840Z,42.13
2022-08-05T14:07:56.885Z,42.86
2022-08-05T14:10:13.795Z,42.99
2022-08-05T14:12:48.905Z,42.73
2022-08-05T14:16:08.954Z,43.17
2022-08-05T14:18:03.881Z,43.15
2022-08-05T14:20:30.999Z,41.73
2022-08-05T14:22:58.974Z,42.55
2022-08-05T14:25:28.069Z,42.33
2022-08-05T14:27:54.796Z,42.14
2022-08-05T14:30:21.659Z,42.03
2022-08-05T14:32:48.848Z,41.90
2022-08-05T14:35:16.200Z,41.63
2022-08-05T14:37:51.015Z,40.84
2022-08-05T14:40:24.503Z,40.15
2022-08-05T14:42:51.433Z,40.37
2022-08-05T14:45:18.321Z,39.71
2022-08-05T14:48:04.033Z,39.75
2022-08-05T14:50:31.523Z,39.69
2022-08-05T14:52:59.581Z,39.78
2022-08-05T14:55:38.347Z,38.44
2022-08-05T14:58:10.966Z,39.56
2022-08-05T15:00:59.347Z,40.00
2022-08-05T15:03:33.718Z,39.42
2022-08-05T15:06:08.098Z,39.12
2022-08-05T15:08:59.082Z,39.46
2022-08-05T15:11:52.745Z,38.80
2022-08-05T15:14:33.445Z,38.98
2022-08-05T15:17:03.798Z,38.18
2022-08-05T15:19:30.850Z,37.85
2022-08-05T15:21:57.976Z,37.32
2022-08-05T15:24:27.447Z,36.79
2022-08-05T15:26:53.900Z,36.41
2022-08-05T15:29:22.835Z,36.16
2022-08-05T15:31:53.116Z,35.72
2022-08-05T15:34:33.074Z,35.19
2022-08-05T15:37:06.876Z,35.31
2022-08-05T15:41:01.187Z,35.44
2022-08-05T15:42:56.868Z,35.19
2022-08-05T15:45:14.803Z,35.03
2022-08-05T15:47:42.653Z,34.89
2022-08-05T15:50:15.178Z,34.91
2022-08-05T15:52:53.128Z,34.78
2022-08-05T15:55:24.879Z,34.72
2022-08-05T15:57:51.832Z,34.71
2022-08-05T16:00:26.057Z,34.66
2022-08-05T16:03:01.984Z,34.42
2022-08-05T16:05:28.686Z,34.26
2022-08-05T16:07:55.171Z,34.08
2022-08-05T16:10:25.595Z,34.06
2022-08-05T16:12:53.663Z,34.19
2022-08-05T16:15:23.009Z,33.92
2022-08-05T16:17:58.057Z,33.66
2022-08-05T16:20:25.544Z,33.37
2022-08-05T16:22:54.295Z,33.12
2022-08-05T16:25:20.736Z,32.88
2022-08-05T16:28:02.143Z,32.74
2022-08-05T16:30:32.301Z,32.68
2022-08-05T16:33:00.371Z,32.35
2022-08-05T16:35:33.686Z,32.11
2022-08-05T16:38:23.996Z,31.84
2022-08-05T16:40:59.703Z,31.70
2022-08-05T16:43:30.187Z,31.55
2022-08-05T16:46:07.313Z,31.61
2022-08-05T16:48:39.553Z,31.46
2022-08-05T16:51:09.853Z,31.53
2022-08-05T16:54:05.613Z,31.42
2022-08-05T16:56:26.509Z,31.03
2022-08-05T16:58:53.765Z,30.95
2022-08-05T17:01:20.390Z,30.98
2022-08-05T17:03:47.265Z,31.07
2022-08-05T17:06:16.352Z,30.90
2022-08-05T17:08:53.782Z,30.77
2022-08-05T17:11:23.482Z,30.79
2022-08-05T17:14:00.190Z,30.50
2022-08-05T17:16:36.712Z,30.11
2022-08-05T17:19:07.853Z,29.94
2022-08-05T17:21:37.504Z,29.96
2022-08-05T17:24:19.794Z,29.82
2022-08-05T17:26:53.493Z,29.85
2022-08-05T17:29:22.772Z,29.52
2022-08-05T17:31:59.459Z,29.25
2022-08-05T17:34:32.067Z,29.14
2022-08-05T17:36:59.786Z,29.04
2022-08-05T17:39:34.239Z,29.16
2022-08-05T17:42:17.633Z,28.94
2022-08-05T17:44:51.017Z,29.09
2022-08-05T17:47:22.495Z,28.95
2022-08-05T17:50:03.971Z,28.93
2022-08-05T17:52:32.326Z,28.87
2022-08-05T17:54:59.812Z,28.98
2022-08-05T17:57:27.683Z,28.85
2022-08-05T18:00:04.858Z,28.67
2022-08-05T18:02:34.370Z,28.61
2022-08-05T18:05:03.214Z,28.66
2022-08-05T18:07:41.229Z,28.50
2022-08-05T18:10:11.046Z,28.40
2022-08-05T18:12:38.280Z,28.44
2022-08-05T18:15:05.504Z,28.50
2022-08-05T18:18:00.202Z,28.45
2022-08-05T18:20:29.008Z,28.36
2022-08-05T18:22:58.518Z,28.38
2022-08-05T18:25:33.071Z,28.31
2022-08-05T18:27:59.707Z,28.24
2022-08-05T18:30:31.248Z,28.14
2022-08-05T18:33:00.424Z,28.18
2022-08-05T18:36:00.773Z,28.01
2022-08-05T18:38:16.534Z,27.85
2022-08-05T18:41:58.406Z,27.88
2022-08-05T18:43:37.901Z,27.98
2022-08-05T18:46:10.039Z,27.94
2022-08-05T18:48:41.695Z,27.94
2022-08-05T18:52:05.982Z,27.99
2022-08-05T18:54:14.008Z,27.93
2022-08-05T18:56:40.562Z,27.89
2022-08-05T18:59:43.212Z,27.85
2022-08-05T19:01:57.142Z,27.97
2022-08-05T19:04:25.227Z,27.82
2022-08-05T19:06:51.924Z,27.70
2022-08-05T19:09:20.580Z,27.71
2022-08-05T19:12:00.800Z,27.70
2022-08-05T19:14:53.418Z,27.78
2022-08-05T19:17:16.529Z,27.72
2022-08-05T19:19:46.862Z,27.72
2022-08-05T19:22:17.268Z,27.72
2022-08-05T19:25:00.243Z,27.66
2022-08-05T19:27:27.745Z,27.72
2022-08-05T19:29:56.453Z,27.83
2022-08-05T19:32:23.731Z,27.77
2022-08-05T19:34:55.275Z,27.75
2022-08-05T19:37:30.127Z,27.54
2022-08-05T19:40:11.252Z,27.56
2022-08-05T19:42:38.925Z,27.52
2022-08-05T19:45:07.083Z,27.52
2022-08-05T19:47:37.248Z,27.44
2022-08-05T19:50:04.886Z,27.55
2022-08-05T19:52:34.156Z,27.65
2022-08-05T19:55:07.169Z,27.67
2022-08-05T19:58:14.605Z,27.76
2022-08-05T20:00:35.701Z,27.83
2022-08-05T20:03:08.801Z,27.67
2022-08-05T20:05:43.093Z,27.52
2022-08-05T20:08:16.447Z,27.35
2022-08-05T20:10:43.282Z,27.28
2022-08-05T20:13:10.885Z,27.44
2022-08-05T20:15:51.704Z,27.43
2022-08-05T20:18:33.390Z,27.42
2022-08-05T20:21:04.525Z,27.26
2022-08-05T20:23:39.569Z,27.26
2022-08-05T20:26:24.784Z,27.00
2022-08-05T20:28:55.829Z,26.93
2022-08-05T20:31:36.773Z,27.04
2022-08-05T20:34:04.244Z,27.06
2022-08-05T20:36:30.792Z,27.06
2022-08-05T20:38:59.270Z,26.96
2022-08-05T20:41:43.971Z,27.02
2022-08-05T20:44:17.422Z,26.76
2022-08-05T20:46:46.338Z,26.61
2022-08-05T20:49:14.033Z,26.64
2022-08-05T20:51:40.519Z,26.49
2022-08-05T20:54:07.073Z,26.40
2022-08-05T20:56:42.472Z,26.44
2022-08-05T20:59:14.366Z,26.20
2022-08-05T21:01:46.250Z,26.11
2022-08-05T21:04:13.586Z,25.89
2022-08-05T21:06:45.625Z,25.51
2022-08-05T21:09:14.590Z,25.53
2022-08-05T21:12:10.491Z,25.68
2022-08-05T21:14:29.302Z,25.69
2022-08-05T21:17:01.489Z,25.43
2022-08-05T21:19:29.613Z,25.18
2022-08-05T21:22:14.219Z,24.98
2022-08-05T21:24:40.946Z,25.02
2022-08-05T21:27:09.187Z,25.04
2022-08-05T21:29:40.628Z,24.85
2022-08-05T21:32:07.681Z,25.09
2022-08-05T21:34:35.579Z,25.27
2022-08-05T21:37:02.330Z,25.24
2022-08-05T21:39:29.168Z,25.18
2022-08-05T21:42:01.878Z,24.99
2022-08-05T21:44:29.701Z,24.80
2022-08-05T21:46:58.068Z,24.76
2022-08-05T21:49:48.554Z,24.80
2022-08-05T21:52:21.530Z,24.40
2022-08-05T21:54:55.038Z,24.25
2022-08-05T21:57:31.624Z,24.33
2022-08-05T22:00:06.399Z,24.30
2022-08-05T22:02:37.421Z,24.26
2022-08-05T22:05:04.783Z,24.02
2022-08-05T22:07:40.052Z,23.98
2022-08-05T22:10:27.047Z,24.03
2022-08-05T22:12:59.225Z,24.09
2022-08-05T22:16:01.097Z,24.18
2022-08-05T22:18:24.851Z,24.14
2022-08-05T22:20:52.419Z,24.05
2022-08-05T22:24:02.979Z,23.95
2022-08-05T22:26:42.252Z,24.09
2022-08-05T22:29:17.416Z,24.17
2022-08-05T22:31:45.371Z,24.13
2022-08-05T22:34:12.928Z,24.22
2022-08-05T22:36:52.327Z,24.18
2022-08-05T22:39:21.588Z,23.83
2022-08-05T22:42:09.264Z,23.92
2022-08-05T22:44:34.855Z,23.87
2022-08-05T22:47:05.755Z,23.74
2022-08-05T22:50:20.747Z,23.68
2022-08-05T22:52:30.629Z,23.72
2022-08-05T22:55:00.768Z,23.69
2022-08-05T22:57:27.195Z,23.54
2022-08-05T23:00:03.758Z,23.56
2022-08-05T23:02:30.426Z,23.67
2022-08-05T23:05:02.012Z,23.83
2022-08-05T23:07:31.831Z,23.87
2022-08-05T23:10:02.054Z,23.88
2022-08-05T23:12:32.525Z,23.71
2022-08-05T23:15:09.143Z,23.71
2022-08-05T23:17:42.571Z,23.75
2022-08-05T23:20:23.585Z,23.76
2022-08-05T23:22:56.322Z,23.73
2022-08-05T23:25:52.618Z,23.70
2022-08-05T23:28:10.450Z,23.77
2022-08-05T23:30:39.678Z,23.84
2022-08-05T23:33:07.440Z,23.68
2022-08-05T23:35:48.807Z,23.59
2022-08-05T23:38:16.012Z,23.75
2022-08-05T23:40:50.235Z,23.69
2022-08-05T23:43:25.443Z,23.58
2022-08-05T23:46:05.266Z,23.55
2022-08-05T23:49:00.817Z,23.50
2022-08-05T23:51:52.597Z,23.43
2022-08-05T23:54:26.653Z,23.18
2022-08-05T23:57:03.890Z,23.17
